createdAt,value
2023-05-11T00:00:16.564Z,45.63
2023-05-11T00:01:16.407Z,45.63
2023-05-11T00:02:16.449Z,45.63
2023-05-11T00:03:16.583Z,45.64
2023-05-11T00:04:16.433Z,45.59
2023-05-11T00:05:16.376Z,45.62
2023-05-11T00:06:16.363Z,45.61
2023-05-11T00:07:16.369Z,45.62
2023-05-11T00:08:16.971Z,45.56
2023-05-11T00:09:16.348Z,45.60
2023-05-11T00:10:17.308Z,45.59
2023-05-11T00:11:16.341Z,45.58
2023-05-11T00:12:16.315Z,45.59
2023-05-11T00:13:16.328Z,45.56
2023-05-11T00:14:16.324Z,45.57
2023-05-11T00:15:16.302Z,45.56
2023-05-11T00:16:16.298Z,45.53
2023-05-11T00:17:16.292Z,45.57
2023-05-11T00:18:16.264Z,45.57
2023-05-11T00:19:16.432Z,45.56
2023-05-11T00:20:16.516Z,45.55
2023-05-11T00:21:16.263Z,45.54
2023-05-11T00:22:16.289Z,45.54
2023-05-11T00:23:16.265Z,45.53
2023-05-11T00:24:16.234Z,45.56
2023-05-11T00:25:16.295Z,45.57
2023-05-11T00:26:16.222Z,45.55
2023-05-11T00:27:16.237Z,45.53
2023-05-11T00:28:16.293Z,45.50
2023-05-11T00:29:16.306Z,45.53
2023-05-11T00:30:16.467Z,45.51
2023-05-11T00:31:16.363Z,45.53
2023-05-11T00:32:16.375Z,45.51
2023-05-11T00:33:16.411Z,45.50
2023-05-11T00:34:16.386Z,45.50
2023-05-11T00:35:16.420Z,45.49
2023-05-11T00:36:16.440Z,45.49
2023-05-11T00:37:16.421Z,45.48
2023-05-11T00:38:16.478Z,45.50
2023-05-11T00:39:16.485Z,45.46
2023-05-11T00:40:16.713Z,45.48
2023-05-11T00:41:16.552Z,45.47
2023-05-11T00:42:16.557Z,45.49
2023-05-11T00:43:16.622Z,45.49
2023-05-11T00:44:16.627Z,45.47
2023-05-11T00:45:16.665Z,45.44
2023-05-11T00:46:16.688Z,45.45
2023-05-11T00:47:16.660Z,45.44
2023-05-11T00:48:16.679Z,45.44
2023-05-11T00:49:16.678Z,45.43
2023-05-11T00:50:17.072Z,45.46
2023-05-11T00:51:16.733Z,45.44
2023-05-11T00:52:16.730Z,45.45
2023-05-11T00:53:16.713Z,45.44
2023-05-11T00:54:16.739Z,45.46
2023-05-11T00:55:16.852Z,45.44
2023-05-11T00:56:16.760Z,45.44
2023-05-11T00:57:16.794Z,45.44
2023-05-11T00:58:16.807Z,45.41
2023-05-11T00:59:16.759Z,45.43
2023-05-11T01:00:16.941Z,45.38
2023-05-11T01:01:16.842Z,45.40
2023-05-11T01:02:16.880Z,45.44
2023-05-11T01:03:16.835Z,45.41
2023-05-11T01:04:16.821Z,45.38
2023-05-11T01:05:16.796Z,45.40
2023-05-11T01:06:16.796Z,45.39
2023-05-11T01:07:16.787Z,45.40
2023-05-11T01:08:16.797Z,45.39
2023-05-11T01:09:16.823Z,45.39
2023-05-11T01:10:17.117Z,45.40
2023-05-11T01:11:16.862Z,45.38
2023-05-11T01:12:16.822Z,45.35
2023-05-11T01:13:16.830Z,45.39
2023-05-11T01:14:16.871Z,45.37
2023-05-11T01:15:16.863Z,45.35
2023-05-11T01:16:16.871Z,45.34
2023-05-11T01:17:16.874Z,45.35
2023-05-11T01:18:16.911Z,45.33
2023-05-11T01:19:16.893Z,45.32
2023-05-11T01:20:17.185Z,45.38
2023-05-11T01:21:16.886Z,45.33
2023-05-11T01:22:16.894Z,45.33
2023-05-11T01:23:16.907Z,45.36
2023-05-11T01:24:16.888Z,45.35
2023-05-11T01:25:16.889Z,45.33
2023-05-11T01:26:16.895Z,45.33
2023-05-11T01:27:16.876Z,45.33
2023-05-11T01:28:16.883Z,45.33
2023-05-11T01:29:16.886Z,45.30
2023-05-11T01:30:17.111Z,45.33
2023-05-11T01:31:16.896Z,45.30
2023-05-11T01:32:16.893Z,45.29
2023-05-11T01:33:16.926Z,45.29
2023-05-11T01:34:16.935Z,45.29
2023-05-11T01:35:16.935Z,45.27
2023-05-11T01:36:16.954Z,45.29
2023-05-11T01:37:16.957Z,45.29
2023-05-11T01:38:16.960Z,45.28
2023-05-11T01:39:16.966Z,45.29
2023-05-11T01:40:17.215Z,45.28
2023-05-11T01:41:16.985Z,45.29
2023-05-11T01:42:17.004Z,45.26
2023-05-11T01:43:17.037Z,45.27
2023-05-11T01:44:17.030Z,45.28
2023-05-11T01:45:17.041Z,45.26
2023-05-11T01:46:17.098Z,45.26
2023-05-11T01:47:17.119Z,45.25
2023-05-11T01:48:17.108Z,45.26
2023-05-11T01:49:17.121Z,45.26
2023-05-11T01:50:17.340Z,45.24
2023-05-11T01:51:17.140Z,45.27
2023-05-11T01:52:17.177Z,45.24
2023-05-11T01:53:17.180Z,45.25
2023-05-11T01:54:17.193Z,45.25
2023-05-11T01:55:17.208Z,45.23
2023-05-11T01:56:17.216Z,45.24
2023-05-11T01:57:17.239Z,45.25
2023-05-11T01:58:17.257Z,45.20
2023-05-11T01:59:17.278Z,45.22
2023-05-11T02:00:17.545Z,45.22
2023-05-11T02:01:17.375Z,45.22
2023-05-11T02:02:17.347Z,45.22
2023-05-11T02:03:17.430Z,45.19
2023-05-11T02:04:17.360Z,45.19
2023-05-11T02:05:17.377Z,45.21
2023-05-11T02:06:17.381Z,45.20
2023-05-11T02:07:17.414Z,45.22
2023-05-11T02:08:17.408Z,45.19
2023-05-11T02:09:17.425Z,45.18
2023-05-11T02:10:17.606Z,45.19
2023-05-11T02:11:17.405Z,45.15
2023-05-11T02:12:17.405Z,45.17
2023-05-11T02:13:17.408Z,45.18
2023-05-11T02:14:17.403Z,45.17
2023-05-11T02:15:17.437Z,45.20
2023-05-11T02:16:17.430Z,45.16
2023-05-11T02:17:17.389Z,45.13
2023-05-11T02:18:17.425Z,45.16
2023-05-11T02:19:17.415Z,45.16
2023-05-11T02:20:17.608Z,45.17
2023-05-11T02:21:17.441Z,45.15
2023-05-11T02:22:17.456Z,45.16
2023-05-11T02:23:17.476Z,45.14
2023-05-11T02:24:17.498Z,45.14
2023-05-11T02:25:17.528Z,45.13
2023-05-11T02:26:17.547Z,45.09
2023-05-11T02:27:17.588Z,45.11
2023-05-11T02:28:17.575Z,45.11
2023-05-11T02:29:17.601Z,45.12
2023-05-11T02:30:17.796Z,45.12
2023-05-11T02:31:17.654Z,45.11
2023-05-11T02:32:17.652Z,45.12
2023-05-11T02:33:17.592Z,45.11
2023-05-11T02:34:17.589Z,45.12
2023-05-11T02:35:17.608Z,45.09
2023-05-11T02:36:17.669Z,45.10
2023-05-11T02:37:17.618Z,45.09
2023-05-11T02:38:17.620Z,45.11
2023-05-11T02:39:17.616Z,45.07
2023-05-11T02:40:17.795Z,45.08
2023-05-11T02:41:17.622Z,45.05
2023-05-11T02:42:17.622Z,45.10
2023-05-11T02:43:17.603Z,45.09
2023-05-11T02:44:17.613Z,45.09
2023-05-11T02:45:17.596Z,45.08
2023-05-11T02:46:17.640Z,45.08
2023-05-11T02:47:17.627Z,45.05
2023-05-11T02:48:17.607Z,45.05
2023-05-11T02:49:17.594Z,45.06
2023-05-11T02:50:17.769Z,45.06
2023-05-11T02:51:17.598Z,45.06
2023-05-11T02:52:17.569Z,45.04
2023-05-11T02:53:17.568Z,45.03
2023-05-11T02:54:17.615Z,45.05
2023-05-11T02:55:17.582Z,45.04
2023-05-11T02:56:17.571Z,45.04
2023-05-11T02:57:17.539Z,45.02
2023-05-11T02:58:17.603Z,45.03
2023-05-11T02:59:17.541Z,45.00
2023-05-11T03:00:17.786Z,45.00
2023-05-11T03:01:17.600Z,45.02
2023-05-11T03:02:17.649Z,45.01
2023-05-11T03:03:17.652Z,45.01
2023-05-11T03:04:17.525Z,45.00
2023-05-11T03:05:17.547Z,45.00
2023-05-11T03:06:17.514Z,45.01
2023-05-11T03:07:17.532Z,44.99
2023-05-11T03:08:17.499Z,44.99
2023-05-11T03:09:17.524Z,45.00
2023-05-11T03:10:17.729Z,45.01
2023-05-11T03:11:17.507Z,44.97
2023-05-11T03:12:17.506Z,44.96
2023-05-11T03:13:17.508Z,44.99
2023-05-11T03:14:17.507Z,45.00
2023-05-11T03:15:17.505Z,44.97
2023-05-11T03:16:19.602Z,44.95
2023-05-11T03:17:17.504Z,44.96
2023-05-11T03:18:17.580Z,44.97
2023-05-11T03:19:17.500Z,44.95
2023-05-11T03:20:17.806Z,44.97
2023-05-11T03:21:17.476Z,44.96
2023-05-11T03:22:17.466Z,44.97
2023-05-11T03:23:17.473Z,44.96
2023-05-11T03:24:17.454Z,44.95
2023-05-11T03:25:17.453Z,44.91
2023-05-11T03:26:17.430Z,44.94
2023-05-11T03:27:17.434Z,44.95
2023-05-11T03:28:17.419Z,44.94
2023-05-11T03:29:17.421Z,44.94
2023-05-11T03:30:17.670Z,44.93
2023-05-11T03:31:17.398Z,44.95
2023-05-11T03:32:17.478Z,44.89
2023-05-11T03:33:17.397Z,44.90
2023-05-11T03:34:17.392Z,44.89
2023-05-11T03:35:17.448Z,44.90
2023-05-11T03:36:17.370Z,44.91
2023-05-11T03:37:17.392Z,44.89
2023-05-11T03:38:17.366Z,44.89
2023-05-11T03:39:17.349Z,44.89
2023-05-11T03:40:17.418Z,44.89
2023-05-11T03:41:17.363Z,44.86
2023-05-11T03:42:17.336Z,44.91
2023-05-11T03:43:17.327Z,44.90
2023-05-11T03:44:17.312Z,44.89
2023-05-11T03:45:17.312Z,44.89
2023-05-11T03:46:17.327Z,44.87
2023-05-11T03:47:17.292Z,44.86
2023-05-11T03:48:17.281Z,44.88
2023-05-11T03:49:17.326Z,44.84
2023-05-11T03:50:17.429Z,44.88
2023-05-11T03:51:17.272Z,44.85
2023-05-11T03:52:17.273Z,44.85
2023-05-11T03:53:17.258Z,44.87
2023-05-11T03:54:17.248Z,44.85
2023-05-11T03:55:17.239Z,44.86
2023-05-11T03:56:17.224Z,44.85
2023-05-11T03:57:17.285Z,44.83
2023-05-11T03:58:17.209Z,44.83
2023-05-11T03:59:17.230Z,44.84
2023-05-11T04:00:17.465Z,44.82
2023-05-11T04:01:17.207Z,44.82
2023-05-11T04:02:17.211Z,44.81
2023-05-11T04:03:17.253Z,44.83
2023-05-11T04:04:17.205Z,44.81
2023-05-11T04:05:17.170Z,44.82
2023-05-11T04:06:17.148Z,44.82
2023-05-11T04:07:17.142Z,44.82
2023-05-11T04:08:17.153Z,44.81
2023-05-11T04:09:17.131Z,44.81
2023-05-11T04:10:17.238Z,44.80
2023-05-11T04:11:17.154Z,44.80
2023-05-11T04:12:17.112Z,44.80
2023-05-11T04:13:17.101Z,44.78
2023-05-11T04:14:17.090Z,44.79
2023-05-11T04:15:17.089Z,44.80
2023-05-11T04:16:17.157Z,44.79
2023-05-11T04:17:17.100Z,44.79
2023-05-11T04:18:17.172Z,44.77
2023-05-11T04:19:17.086Z,44.74
2023-05-11T04:20:17.268Z,44.75
2023-05-11T04:21:17.053Z,44.77
2023-05-11T04:22:17.035Z,44.73
2023-05-11T04:23:17.047Z,44.76
2023-05-11T04:24:17.025Z,44.78
2023-05-11T04:25:17.038Z,44.76
2023-05-11T04:26:16.992Z,44.73
2023-05-11T04:27:16.995Z,44.74
2023-05-11T04:28:17.001Z,44.73
2023-05-11T04:29:16.989Z,44.73
2023-05-11T04:30:17.202Z,44.71
2023-05-11T04:31:17.028Z,44.77
2023-05-11T04:32:16.950Z,44.73
2023-05-11T04:33:16.945Z,44.72
2023-05-11T04:34:16.990Z,44.74
2023-05-11T04:35:16.945Z,44.71
2023-05-11T04:36:16.926Z,44.68
2023-05-11T04:37:16.909Z,44.70
2023-05-11T04:38:16.915Z,44.70
2023-05-11T04:39:16.901Z,44.69
2023-05-11T04:40:17.215Z,44.68
2023-05-11T04:41:16.879Z,44.69
2023-05-11T04:42:16.884Z,44.68
2023-05-11T04:43:16.873Z,44.69
2023-05-11T04:44:16.866Z,44.69
2023-05-11T04:45:16.865Z,44.70
2023-05-11T04:46:16.886Z,44.68
2023-05-11T04:47:16.844Z,44.67
2023-05-11T04:48:19.578Z,44.68
2023-05-11T04:49:16.837Z,44.69
2023-05-11T04:50:17.034Z,44.70
2023-05-11T04:51:16.823Z,44.67
2023-05-11T04:52:16.812Z,44.66
2023-05-11T04:53:16.817Z,44.64
2023-05-11T04:54:16.817Z,44.65
2023-05-11T04:55:16.815Z,44.62
2023-05-11T04:56:16.785Z,44.65
2023-05-11T04:57:16.779Z,44.66
2023-05-11T04:58:16.778Z,44.67
2023-05-11T04:59:16.788Z,44.64
2023-05-11T05:00:17.157Z,44.65
2023-05-11T05:01:16.838Z,44.62
2023-05-11T05:02:16.796Z,44.60
2023-05-11T05:03:16.791Z,44.65
2023-05-11T05:04:16.966Z,44.60
2023-05-11T05:05:16.743Z,44.59
2023-05-11T05:06:16.734Z,44.58
2023-05-11T05:07:16.712Z,44.62
2023-05-11T05:08:16.714Z,44.61
2023-05-11T05:09:16.694Z,44.60
2023-05-11T05:10:16.959Z,44.59
2023-05-11T05:11:16.723Z,44.58
2023-05-11T05:12:16.762Z,44.57
2023-05-11T05:13:16.689Z,44.56
2023-05-11T05:14:16.691Z,44.59
2023-05-11T05:15:16.661Z,44.57
2023-05-11T05:16:16.703Z,44.55
2023-05-11T05:17:16.654Z,44.51
2023-05-11T05:18:16.646Z,44.53
2023-05-11T05:19:16.630Z,44.55
2023-05-11T05:20:16.761Z,44.54
2023-05-11T05:21:16.619Z,44.54
2023-05-11T05:22:16.623Z,44.54
2023-05-11T05:23:16.641Z,44.53
2023-05-11T05:24:16.599Z,44.48
2023-05-11T05:25:16.601Z,44.49
2023-05-11T05:26:16.588Z,44.50
2023-05-11T05:27:16.701Z,44.50
2023-05-11T05:28:16.593Z,44.50
2023-05-11T05:29:16.561Z,44.50
2023-05-11T05:30:16.882Z,44.50
2023-05-11T05:31:16.617Z,44.45
2023-05-11T05:32:16.559Z,44.47
2023-05-11T05:33:16.574Z,44.27
2023-05-11T05:34:16.812Z,43.38
2023-05-11T05:35:16.565Z,43.73
2023-05-11T05:36:16.520Z,44.24
2023-05-11T05:37:16.554Z,43.56
2023-05-11T05:38:16.504Z,43.89
2023-05-11T05:39:16.503Z,44.10
2023-05-11T05:40:16.868Z,44.38
2023-05-11T05:41:16.478Z,44.13
2023-05-11T05:42:16.490Z,44.03
2023-05-11T05:43:16.474Z,43.94
2023-05-11T05:44:16.476Z,43.99
2023-05-11T05:45:16.474Z,44.01
2023-05-11T05:46:16.502Z,44.35
2023-05-11T05:47:16.454Z,44.49
2023-05-11T05:48:16.445Z,44.85
2023-05-11T05:49:16.423Z,45.32
2023-05-11T05:50:16.607Z,45.53
2023-05-11T05:51:16.456Z,45.61
2023-05-11T05:52:16.423Z,45.79
2023-05-11T05:53:16.459Z,46.04
2023-05-11T05:54:16.393Z,46.11
2023-05-11T05:55:16.388Z,46.30
2023-05-11T05:56:16.385Z,46.32
2023-05-11T05:57:16.359Z,46.38
2023-05-11T05:58:16.375Z,46.45
2023-05-11T05:59:16.356Z,46.46
2023-05-11T06:00:16.525Z,46.60
2023-05-11T06:01:16.326Z,46.75
2023-05-11T06:02:16.384Z,46.95
2023-05-11T06:03:16.483Z,47.00
2023-05-11T06:04:16.555Z,47.23
2023-05-11T06:05:16.427Z,47.28
2023-05-11T06:06:16.442Z,47.36
2023-05-11T06:07:16.442Z,47.43
2023-05-11T06:08:16.458Z,47.65
2023-05-11T06:09:16.475Z,47.74
2023-05-11T06:10:16.993Z,47.80
2023-05-11T06:11:16.500Z,47.80
2023-05-11T06:12:16.482Z,47.98
2023-05-11T06:13:16.552Z,48.06
2023-05-11T06:14:16.480Z,48.34
2023-05-11T06:15:16.523Z,48.42
2023-05-11T06:16:16.530Z,48.53
2023-05-11T06:17:16.497Z,48.06
2023-05-11T06:18:16.486Z,45.07
2023-05-11T06:19:16.514Z,43.82
2023-05-11T06:20:16.760Z,43.39
2023-05-11T06:21:16.585Z,43.08
2023-05-11T06:22:16.608Z,43.27
2023-05-11T06:23:16.630Z,44.26
2023-05-11T06:24:16.710Z,44.55
2023-05-11T06:25:16.757Z,45.03
2023-05-11T06:26:16.740Z,45.22
2023-05-11T06:27:18.393Z,45.29
2023-05-11T06:28:16.807Z,45.42
2023-05-11T06:29:16.851Z,45.53
2023-05-11T06:30:16.984Z,45.61
2023-05-11T06:31:16.916Z,45.72
2023-05-11T06:32:16.916Z,45.80
2023-05-11T06:33:16.909Z,45.90
2023-05-11T06:34:16.918Z,46.14
2023-05-11T06:35:16.935Z,46.52
2023-05-11T06:36:16.932Z,46.47
2023-05-11T06:37:16.920Z,46.03
2023-05-11T06:38:16.955Z,46.26
2023-05-11T06:39:16.937Z,46.14
2023-05-11T06:40:17.121Z,46.25
2023-05-11T06:41:17.314Z,46.35
2023-05-11T06:42:17.792Z,46.46
2023-05-11T06:43:16.963Z,46.49
2023-05-11T06:44:17.019Z,46.67
2023-05-11T06:45:17.058Z,46.76
2023-05-11T06:46:17.085Z,46.83
2023-05-11T06:47:17.788Z,46.80
2023-05-11T06:48:17.076Z,47.10
2023-05-11T06:49:17.082Z,47.03
2023-05-11T06:50:18.381Z,47.09
2023-05-11T06:51:17.168Z,47.15
2023-05-11T06:52:17.210Z,46.85
2023-05-11T06:53:17.218Z,47.25
2023-05-11T06:54:17.234Z,47.36
2023-05-11T06:55:17.272Z,47.39
2023-05-11T06:56:17.324Z,47.40
2023-05-11T06:57:17.338Z,47.34
2023-05-11T06:58:17.392Z,47.50
2023-05-11T06:59:17.443Z,47.54
2023-05-11T07:00:17.672Z,47.56
2023-05-11T07:01:17.511Z,47.71
2023-05-11T07:02:17.516Z,47.68
2023-05-11T07:03:17.649Z,47.71
2023-05-11T07:04:17.648Z,47.66
2023-05-11T07:05:17.648Z,47.56
2023-05-11T07:06:17.696Z,47.57
2023-05-11T07:07:17.750Z,47.61
2023-05-11T07:08:17.768Z,47.68
2023-05-11T07:09:17.837Z,47.73
2023-05-11T07:10:18.026Z,47.71
2023-05-11T07:11:17.940Z,47.77
2023-05-11T07:12:17.983Z,47.81
2023-05-11T07:13:18.036Z,47.86
2023-05-11T07:14:18.116Z,47.86
2023-05-11T07:15:18.154Z,47.90
2023-05-11T07:16:18.256Z,47.88
2023-05-11T07:17:18.264Z,47.89
2023-05-11T07:18:18.377Z,47.92
2023-05-11T07:19:18.394Z,47.93
2023-05-11T07:20:18.640Z,47.96
2023-05-11T07:21:18.581Z,47.95
2023-05-11T07:22:18.586Z,47.97
2023-05-11T07:23:18.656Z,48.03
2023-05-11T07:24:18.711Z,48.02
2023-05-11T07:25:18.810Z,48.04
2023-05-11T07:26:18.834Z,48.01
2023-05-11T07:27:18.871Z,48.02
2023-05-11T07:28:18.964Z,48.01
2023-05-11T07:29:19.052Z,48.00
2023-05-11T07:30:19.251Z,48.44
2023-05-11T07:31:19.139Z,47.86
2023-05-11T07:32:19.171Z,47.39
2023-05-11T07:33:19.254Z,46.49
2023-05-11T07:34:19.285Z,44.35
2023-05-11T07:35:19.816Z,43.10
2023-05-11T07:36:19.829Z,41.47
2023-05-11T07:37:19.327Z,40.59
2023-05-11T07:38:19.310Z,40.96
2023-05-11T07:39:19.322Z,40.11
2023-05-11T07:40:19.561Z,39.60
2023-05-11T07:41:19.844Z,38.68
2023-05-11T07:42:19.314Z,37.87
2023-05-11T07:43:19.329Z,37.64
2023-05-11T07:44:19.339Z,37.43
2023-05-11T07:45:19.368Z,37.48
2023-05-11T07:46:20.402Z,37.11
2023-05-11T07:47:19.435Z,37.04
2023-05-11T07:48:19.463Z,36.70
2023-05-11T07:49:25.432Z,36.75
2023-05-11T07:50:23.927Z,36.72
2023-05-11T07:51:19.498Z,36.66
2023-05-11T07:52:19.490Z,36.61
2023-05-11T07:53:19.476Z,36.28
2023-05-11T07:54:21.052Z,36.20
2023-05-11T07:55:19.651Z,36.23
2023-05-11T07:56:19.472Z,36.22
2023-05-11T07:57:19.481Z,36.11
2023-05-11T07:58:19.472Z,36.02
2023-05-11T07:59:19.450Z,36.26
2023-05-11T08:00:19.676Z,36.05
2023-05-11T08:01:19.439Z,36.11
2023-05-11T08:02:19.463Z,36.14
2023-05-11T08:03:19.470Z,36.19
2023-05-11T08:04:19.418Z,36.07
2023-05-11T08:05:19.752Z,36.06
2023-05-11T08:06:19.516Z,36.09
2023-05-11T08:07:19.427Z,36.04
2023-05-11T08:08:19.441Z,36.16
2023-05-11T08:09:19.466Z,36.12
2023-05-11T08:10:19.472Z,35.86
2023-05-11T08:11:19.479Z,35.95
2023-05-11T08:12:19.491Z,35.87
2023-05-11T08:13:20.183Z,35.85
2023-05-11T08:14:19.516Z,35.82
2023-05-11T08:15:19.893Z,35.71
2023-05-11T08:16:19.593Z,35.65
2023-05-11T08:17:19.588Z,35.73
2023-05-11T08:18:19.637Z,35.78
2023-05-11T08:19:19.672Z,35.73
2023-05-11T08:20:19.668Z,35.71
2023-05-11T08:21:19.839Z,35.81
2023-05-11T08:22:19.724Z,35.82
2023-05-11T08:23:19.768Z,35.69
2023-05-11T08:24:19.790Z,36.15
2023-05-11T08:25:19.995Z,36.18
2023-05-11T08:26:19.876Z,36.54
2023-05-11T08:27:19.901Z,37.03
2023-05-11T08:28:19.963Z,37.27
2023-05-11T08:29:19.909Z,37.42
2023-05-11T08:30:19.901Z,37.60
2023-05-11T08:31:19.926Z,37.74
2023-05-11T08:32:20.096Z,37.93
2023-05-11T08:33:35.940Z,38.16
2023-05-11T08:34:21.088Z,38.34
2023-05-11T08:35:20.350Z,38.70
2023-05-11T08:36:20.014Z,38.39
2023-05-11T08:37:20.029Z,38.63
2023-05-11T08:38:20.000Z,38.63
2023-05-11T08:39:33.329Z,38.87
2023-05-11T08:40:20.991Z,38.75
2023-05-11T08:41:19.988Z,38.85
2023-05-11T08:42:19.999Z,38.60
2023-05-11T08:43:19.964Z,38.62
2023-05-11T08:44:19.962Z,38.47
2023-05-11T08:45:20.155Z,38.38
2023-05-11T08:46:20.067Z,38.30
2023-05-11T08:47:22.486Z,38.28
2023-05-11T08:48:19.938Z,38.20
2023-05-11T08:49:19.942Z,38.18
2023-05-11T08:50:19.915Z,38.15
2023-05-11T08:51:20.390Z,38.11
2023-05-11T08:52:19.902Z,38.13
2023-05-11T08:53:19.905Z,37.99
2023-05-11T08:54:19.961Z,37.99
2023-05-11T08:55:20.096Z,37.92
2023-05-11T08:56:19.871Z,37.97
2023-05-11T08:57:19.858Z,37.95
2023-05-11T08:58:19.857Z,37.94
2023-05-11T08:59:19.849Z,37.96
2023-05-11T09:00:19.840Z,37.91
2023-05-11T09:01:19.860Z,37.89
2023-05-11T09:02:19.861Z,37.82
2023-05-11T09:03:19.833Z,37.80
2023-05-11T09:04:19.825Z,37.79
2023-05-11T09:05:20.104Z,37.66
2023-05-11T09:06:19.827Z,37.63
2023-05-11T09:07:19.805Z,37.54
2023-05-11T09:08:19.810Z,37.55
2023-05-11T09:09:19.786Z,37.52
2023-05-11T09:10:19.792Z,37.53
2023-05-11T09:11:19.824Z,37.50
2023-05-11T09:12:19.754Z,37.51
2023-05-11T09:13:19.786Z,37.49
2023-05-11T09:14:19.755Z,37.42
2023-05-11T09:15:19.964Z,37.51
2023-05-11T09:16:32.987Z,37.42
2023-05-11T09:17:20.774Z,37.41
2023-05-11T09:18:19.850Z,37.36
2023-05-11T09:19:19.721Z,37.32
2023-05-11T09:20:19.904Z,37.27
2023-05-11T09:21:19.712Z,37.26
2023-05-11T09:22:19.695Z,37.26
2023-05-11T09:23:19.686Z,37.21
2023-05-11T09:24:19.697Z,37.20
2023-05-11T09:25:19.993Z,37.24
2023-05-11T09:26:19.678Z,37.21
2023-05-11T09:27:21.670Z,37.21
2023-05-11T09:29:20.663Z,37.43
2023-05-11T09:30:23.293Z,37.48
2023-05-11T09:31:19.686Z,37.63
2023-05-11T09:32:19.642Z,37.65
2023-05-11T09:33:19.625Z,37.78
2023-05-11T09:34:19.666Z,38.00
2023-05-11T09:35:19.793Z,38.23
2023-05-11T09:36:19.613Z,38.64
2023-05-11T09:37:19.623Z,38.84
2023-05-11T09:38:19.604Z,38.80
2023-05-11T09:40:27.510Z,38.45
2023-05-11T09:41:20.577Z,38.33
2023-05-11T09:42:19.597Z,37.88
2023-05-11T09:43:19.594Z,37.91
2023-05-11T09:44:19.600Z,37.94
2023-05-11T09:45:19.757Z,37.96
2023-05-11T09:46:19.545Z,37.94
2023-05-11T09:47:19.615Z,37.87
2023-05-11T09:48:19.605Z,37.94
2023-05-11T09:49:19.518Z,37.86
2023-05-11T09:50:26.482Z,37.83
2023-05-11T09:51:20.528Z,37.80
2023-05-11T09:52:19.511Z,37.74
2023-05-11T09:53:19.490Z,37.62
2023-05-11T09:54:19.526Z,37.56
2023-05-11T09:55:19.721Z,37.49
2023-05-11T09:56:19.469Z,37.44
2023-05-11T09:57:19.520Z,37.44
2023-05-11T09:58:19.465Z,37.42
2023-05-11T09:59:19.458Z,37.35
2023-05-11T10:00:19.443Z,37.39
2023-05-11T10:01:19.478Z,37.33
2023-05-11T10:02:19.497Z,37.30
2023-05-11T10:03:19.484Z,37.31
2023-05-11T10:04:23.657Z,37.30
2023-05-11T10:05:19.654Z,37.30
2023-05-11T10:06:20.473Z,37.23
2023-05-11T10:07:19.411Z,37.22
2023-05-11T10:08:19.380Z,37.19
2023-05-11T10:09:19.378Z,37.13
2023-05-11T10:10:19.362Z,37.13
2023-05-11T10:11:19.381Z,37.10
2023-05-11T10:12:19.414Z,37.07
2023-05-11T10:13:19.365Z,37.06
2023-05-11T10:14:19.623Z,37.00
2023-05-11T10:15:19.550Z,36.80
2023-05-11T10:16:19.385Z,36.80
2023-05-11T10:17:19.315Z,36.82
2023-05-11T10:18:20.444Z,36.78
2023-05-11T10:19:19.316Z,36.78
2023-05-11T10:20:19.491Z,36.71
2023-05-11T10:21:19.288Z,36.73
2023-05-11T10:22:19.346Z,36.72
2023-05-11T10:23:19.412Z,36.64
2023-05-11T10:24:20.620Z,36.62
2023-05-11T10:25:19.263Z,36.84
2023-05-11T10:26:19.254Z,37.27
2023-05-11T10:27:19.299Z,37.47
2023-05-11T10:28:19.259Z,37.76
2023-05-11T10:29:19.255Z,38.12
2023-05-11T10:30:19.449Z,38.12
2023-05-11T10:31:19.292Z,38.43
2023-05-11T10:32:19.417Z,38.33
2023-05-11T10:33:19.215Z,38.49
2023-05-11T10:34:19.243Z,38.54
2023-05-11T10:35:19.303Z,38.43
2023-05-11T10:36:19.830Z,38.24
2023-05-11T10:37:19.444Z,38.10
2023-05-11T10:38:19.522Z,38.05
2023-05-11T10:39:19.538Z,37.96
2023-05-11T10:40:19.821Z,37.92
2023-05-11T10:41:19.614Z,37.88
2023-05-11T10:42:19.915Z,37.86
2023-05-11T10:43:19.601Z,37.80
2023-05-11T10:44:19.625Z,37.71
2023-05-11T10:45:19.628Z,37.72
2023-05-11T10:46:19.644Z,37.67
2023-05-11T10:47:19.610Z,37.65
2023-05-11T10:48:19.631Z,37.59
2023-05-11T10:49:19.609Z,37.60
2023-05-11T10:50:19.804Z,37.55
2023-05-11T10:51:19.595Z,37.56
2023-05-11T10:52:19.614Z,37.46
2023-05-11T10:53:19.590Z,37.43
2023-05-11T10:54:19.606Z,37.33
2023-05-11T10:55:19.768Z,37.29
2023-05-11T10:56:19.646Z,37.24
2023-05-11T10:57:19.646Z,37.14
2023-05-11T10:58:19.633Z,37.10
2023-05-11T10:59:19.644Z,37.09
2023-05-11T11:00:19.900Z,37.07
2023-05-11T11:01:19.694Z,37.04
2023-05-11T11:02:19.646Z,37.07
2023-05-11T11:03:19.656Z,37.01
2023-05-11T11:04:19.663Z,36.98
2023-05-11T11:05:19.892Z,36.94
2023-05-11T11:06:19.682Z,36.91
2023-05-11T11:07:19.785Z,36.94
2023-05-11T11:08:19.720Z,36.91
2023-05-11T11:09:19.737Z,36.88
2023-05-11T11:10:19.881Z,36.86
2023-05-11T11:11:19.738Z,36.82
2023-05-11T11:12:19.765Z,37.05
2023-05-11T11:13:19.804Z,37.21
2023-05-11T11:14:19.839Z,37.30
2023-05-11T11:15:20.017Z,37.57
2023-05-11T11:16:19.844Z,37.80
2023-05-11T11:17:19.939Z,37.95
2023-05-11T11:18:19.866Z,38.03
2023-05-11T11:19:19.847Z,38.12
2023-05-11T11:20:19.850Z,38.21
2023-05-11T11:21:19.857Z,38.27
2023-05-11T11:22:19.840Z,38.31
2023-05-11T11:23:19.872Z,38.33
2023-05-11T11:24:19.876Z,38.38
2023-05-11T11:25:20.040Z,38.36
2023-05-11T11:26:19.908Z,38.40
2023-05-11T11:27:19.968Z,38.40
2023-05-11T11:28:20.011Z,38.41
2023-05-11T11:29:20.061Z,38.43
2023-05-11T11:30:20.179Z,38.43
2023-05-11T11:31:20.246Z,38.45
2023-05-11T11:32:20.420Z,38.44
2023-05-11T11:33:20.316Z,38.44
2023-05-11T11:34:20.352Z,38.41
2023-05-11T11:35:20.464Z,38.40
2023-05-11T11:36:20.500Z,38.45
2023-05-11T11:37:20.569Z,38.46
2023-05-11T11:38:20.608Z,38.46
2023-05-11T11:39:20.670Z,38.46
2023-05-11T11:40:20.736Z,38.50
2023-05-11T11:41:20.799Z,38.51
2023-05-11T11:42:20.859Z,38.52
2023-05-11T11:43:20.940Z,38.52
2023-05-11T11:44:20.955Z,38.52
2023-05-11T11:45:21.015Z,38.53
2023-05-11T11:46:21.105Z,38.54
2023-05-11T11:47:21.171Z,38.56
2023-05-11T11:48:21.199Z,38.58
2023-05-11T11:49:21.255Z,38.59
2023-05-11T11:50:21.315Z,38.55
2023-05-11T11:51:21.366Z,38.61
2023-05-11T11:52:21.459Z,38.61
2023-05-11T11:53:21.489Z,38.62
2023-05-11T11:54:21.536Z,38.61
2023-05-11T11:55:21.586Z,38.62
2023-05-11T11:56:21.633Z,38.64
2023-05-11T11:57:21.685Z,38.62
2023-05-11T11:58:21.793Z,38.63
2023-05-11T11:59:21.786Z,38.65
2023-05-11T12:00:21.827Z,38.67
2023-05-11T12:01:21.872Z,38.66
2023-05-11T12:02:21.922Z,38.66
2023-05-11T12:03:22.084Z,38.68
2023-05-11T12:04:22.224Z,38.67
2023-05-11T12:05:22.367Z,38.70
2023-05-11T12:06:23.049Z,38.69
2023-05-11T12:07:22.161Z,38.73
2023-05-11T12:08:22.230Z,38.72
2023-05-11T12:09:22.295Z,38.70
2023-05-11T12:10:22.279Z,38.71
2023-05-11T12:11:22.343Z,38.74
2023-05-11T12:12:22.416Z,38.75
2023-05-11T12:13:22.401Z,38.74
2023-05-11T12:14:22.453Z,38.73
2023-05-11T12:15:22.498Z,38.74
2023-05-11T12:16:22.578Z,38.73
2023-05-11T12:17:22.621Z,38.75
2023-05-11T12:18:22.742Z,38.80
2023-05-11T12:19:22.670Z,38.91
2023-05-11T12:20:22.716Z,39.14
2023-05-11T12:21:22.773Z,39.14
2023-05-11T12:22:22.816Z,39.34
2023-05-11T12:23:22.852Z,39.49
2023-05-11T12:24:22.859Z,39.88
2023-05-11T12:25:23.252Z,39.90
2023-05-11T12:26:22.922Z,39.94
2023-05-11T12:27:22.990Z,40.06
2023-05-11T12:28:22.995Z,40.28
2023-05-11T12:29:23.007Z,40.38
2023-05-11T12:30:23.031Z,40.45
2023-05-11T12:31:23.122Z,40.53
2023-05-11T12:32:23.107Z,40.50
2023-05-11T12:33:23.141Z,40.72
2023-05-11T12:34:23.110Z,40.76
2023-05-11T12:35:23.117Z,40.85
2023-05-11T12:36:23.108Z,41.07
2023-05-11T12:37:23.118Z,41.15
2023-05-11T12:38:23.112Z,41.06
2023-05-11T12:39:23.127Z,41.09
2023-05-11T12:40:23.111Z,41.17
2023-05-11T12:41:23.126Z,41.22
2023-05-11T12:42:23.099Z,41.28
2023-05-11T12:43:23.112Z,41.33
2023-05-11T12:44:23.102Z,41.43
2023-05-11T12:45:23.084Z,41.48
2023-05-11T12:46:23.166Z,41.25
2023-05-11T12:47:23.154Z,41.45
2023-05-11T12:48:23.101Z,41.64
2023-05-11T12:50:23.186Z,41.68
2023-05-11T12:51:23.097Z,41.58
2023-05-11T12:52:23.080Z,41.62
2023-05-11T12:53:23.103Z,41.67
2023-05-11T12:54:23.072Z,41.80
2023-05-11T12:55:23.082Z,41.80